createdAt,value
2023-01-17T00:01:45.279Z,4.80
2023-01-17T00:04:36.676Z,4.76
2023-01-17T00:07:31.144Z,4.70
2023-01-17T00:10:09.652Z,4.60
2023-01-17T00:12:49.404Z,4.50
2023-01-17T00:15:24.641Z,4.50
2023-01-17T00:17:58.886Z,4.46
2023-01-17T00:20:52.256Z,4.40
2023-01-17T00:23:45.846Z,4.30
2023-01-17T00:26:21.470Z,4.20
2023-01-17T00:28:54.207Z,4.18
2023-01-17T00:31:27.080Z,4.10
2023-01-17T00:33:59.520Z,4.10
2023-01-17T00:36:32.035Z,4.10
2023-01-17T00:39:04.697Z,4.00
2023-01-17T00:41:37.656Z,3.90
2023-01-17T00:44:29.128Z,3.90
2023-01-17T00:47:20.473Z,3.80
2023-01-17T00:50:11.677Z,3.70
2023-01-17T00:53:03.114Z,3.70
2023-01-17T00:55:55.397Z,3.70
2023-01-17T00:58:46.988Z,3.70
2023-01-17T01:01:38.609Z,3.70
2023-01-17T01:04:29.921Z,3.70
2023-01-17T01:07:21.621Z,3.60
2023-01-17T01:10:13.115Z,3.60
2023-01-17T01:13:04.458Z,3.60
2023-01-17T01:15:56.014Z,3.60
2023-01-17T01:18:47.258Z,3.52
2023-01-17T01:21:38.281Z,3.50
2023-01-17T01:24:29.817Z,3.46
2023-01-17T01:27:21.457Z,3.40
2023-01-17T01:30:12.971Z,3.40
2023-01-17T01:33:04.489Z,3.40
2023-01-17T01:35:38.880Z,3.40
2023-01-17T01:38:13.132Z,3.40
2023-01-17T01:40:53.136Z,3.40
2023-01-17T01:43:47.957Z,3.32
2023-01-17T01:46:28.423Z,3.30
2023-01-17T01:49:07.385Z,3.38
2023-01-17T01:51:47.199Z,3.40
2023-01-17T01:54:28.952Z,3.38
2023-01-17T01:57:08.438Z,3.30
2023-01-17T01:59:48.799Z,3.30
2023-01-17T02:02:22.871Z,3.30
2023-01-17T02:04:57.686Z,3.30
2023-01-17T02:07:39.116Z,3.30
2023-01-17T02:10:14.193Z,3.20
2023-01-17T02:12:49.184Z,3.10
2023-01-17T02:15:29.574Z,3.10
2023-01-17T02:18:17.836Z,3.00
2023-01-17T02:21:33.944Z,3.00
2023-01-17T02:24:49.117Z,3.00
2023-01-17T02:27:36.082Z,3.10
2023-01-17T02:30:36.179Z,3.10
2023-01-17T02:33:30.237Z,3.20
2023-01-17T02:36:12.269Z,3.30
2023-01-17T02:38:58.093Z,3.32
2023-01-17T02:41:37.388Z,3.40
2023-01-17T02:44:17.596Z,3.50
2023-01-17T02:46:53.918Z,3.50
2023-01-17T02:49:32.761Z,3.60
2023-01-17T02:52:31.505Z,3.60
2023-01-17T02:55:21.191Z,3.70
2023-01-17T02:58:17.000Z,3.70
2023-01-17T03:01:03.947Z,3.70
2023-01-17T03:03:48.953Z,3.70
2023-01-17T03:06:31.427Z,3.72
2023-01-17T03:09:07.418Z,3.80
2023-01-17T03:11:42.243Z,3.80
2023-01-17T03:14:16.099Z,3.76
2023-01-17T03:16:50.104Z,3.70
2023-01-17T03:19:23.779Z,3.70
2023-01-17T03:21:57.507Z,3.70
2023-01-17T03:24:31.561Z,3.70
2023-01-17T03:27:05.728Z,3.70
2023-01-17T03:29:39.972Z,3.70
2023-01-17T03:32:13.738Z,3.70
2023-01-17T03:34:47.396Z,3.70
2023-01-17T03:37:21.405Z,3.76
2023-01-17T03:39:55.732Z,3.90
2023-01-17T03:42:29.675Z,3.90
2023-01-17T03:45:03.543Z,4.00
2023-01-17T03:47:39.033Z,4.00
2023-01-17T03:50:15.395Z,4.04
2023-01-17T03:52:49.583Z,4.10
2023-01-17T03:55:23.574Z,4.20
2023-01-17T03:57:57.347Z,4.20
2023-01-17T04:00:31.147Z,4.30
2023-01-17T04:03:04.969Z,4.30
2023-01-17T04:05:38.795Z,4.40
2023-01-17T04:08:12.482Z,4.40
2023-01-17T04:10:46.327Z,4.40
2023-01-17T04:13:20.594Z,4.40
2023-01-17T04:15:55.944Z,4.40
2023-01-17T04:18:30.889Z,4.40
2023-01-17T04:21:04.791Z,4.30
2023-01-17T04:23:38.921Z,4.30
2023-01-17T04:26:14.732Z,4.30
2023-01-17T04:28:48.469Z,4.30
2023-01-17T04:31:22.176Z,4.30
2023-01-17T04:33:56.003Z,4.30
2023-01-17T04:36:29.949Z,4.30
2023-01-17T04:39:04.343Z,4.20
2023-01-17T04:41:38.637Z,4.14
2023-01-17T04:44:12.393Z,4.08
2023-01-17T04:46:46.104Z,3.96
2023-01-17T04:49:20.193Z,3.86
2023-01-17T04:51:53.877Z,3.80
2023-01-17T04:54:27.621Z,3.70
2023-01-17T04:57:01.471Z,3.64
2023-01-17T04:59:35.341Z,3.60
2023-01-17T05:02:09.274Z,3.50
2023-01-17T05:04:43.693Z,3.40
2023-01-17T05:07:17.947Z,3.40
2023-01-17T05:09:51.935Z,3.40
2023-01-17T05:12:25.990Z,3.40
2023-01-17T05:14:59.903Z,3.30
2023-01-17T05:17:33.660Z,3.30
2023-01-17T05:20:10.449Z,3.30
2023-01-17T05:22:44.058Z,3.30
2023-01-17T05:25:18.269Z,3.30
2023-01-17T05:27:52.043Z,3.30
2023-01-17T05:30:26.336Z,3.20
2023-01-17T05:33:01.619Z,3.20
2023-01-17T05:35:36.657Z,3.10
2023-01-17T05:38:10.413Z,3.20
2023-01-17T05:40:44.227Z,3.20
2023-01-17T05:43:18.193Z,3.20
2023-01-17T05:45:53.508Z,3.20
2023-01-17T05:48:27.236Z,3.20
2023-01-17T05:51:01.994Z,3.20
2023-01-17T05:53:35.995Z,3.20
2023-01-17T05:56:10.450Z,3.24
2023-01-17T05:58:44.242Z,3.30
2023-01-17T06:01:19.726Z,3.30
2023-01-17T06:03:53.580Z,3.30
2023-01-17T06:06:27.388Z,3.30
2023-01-17T06:09:01.816Z,3.30
2023-01-17T06:11:36.142Z,3.30
2023-01-17T06:14:11.033Z,3.40
2023-01-17T06:16:44.958Z,3.42
2023-01-17T06:19:18.651Z,3.50
2023-01-17T06:21:52.546Z,3.60
2023-01-17T06:24:26.335Z,3.60
2023-01-17T06:27:00.255Z,3.62
2023-01-17T06:29:34.106Z,3.70
2023-01-17T06:32:08.798Z,3.80
2023-01-17T06:34:43.680Z,3.80
2023-01-17T06:37:17.460Z,3.82
2023-01-17T06:39:51.889Z,3.82
2023-01-17T06:42:26.200Z,3.80
2023-01-17T06:45:00.271Z,3.70
2023-01-17T06:47:34.149Z,3.60
2023-01-17T06:50:10.091Z,3.60
2023-01-17T06:52:44.701Z,3.56
2023-01-17T06:55:18.572Z,3.50
2023-01-17T06:57:52.643Z,3.40
2023-01-17T07:00:29.515Z,3.40
2023-01-17T07:03:03.586Z,3.30
2023-01-17T07:05:41.632Z,3.20
2023-01-17T07:08:17.156Z,3.14
2023-01-17T07:10:51.702Z,3.10
2023-01-17T07:13:25.895Z,3.10
2023-01-17T07:16:01.278Z,3.10
2023-01-17T07:18:36.937Z,3.00
2023-01-17T07:21:17.493Z,3.00
2023-01-17T07:23:51.423Z,2.90
2023-01-17T07:26:25.369Z,2.90
2023-01-17T07:28:59.635Z,2.90
2023-01-17T07:31:35.426Z,2.98
2023-01-17T07:34:09.625Z,3.00
2023-01-17T07:36:43.876Z,3.00
2023-01-17T07:39:18.436Z,3.00
2023-01-17T07:41:52.404Z,2.98
2023-01-17T07:44:26.932Z,3.00
2023-01-17T07:47:00.995Z,3.00
2023-01-17T07:49:34.748Z,3.00
2023-01-17T07:52:09.171Z,3.10
2023-01-17T07:54:43.070Z,3.10
2023-01-17T07:57:18.137Z,3.18
2023-01-17T07:59:54.916Z,3.20
2023-01-17T08:02:28.731Z,3.30
2023-01-17T08:05:02.689Z,3.40
2023-01-17T08:07:37.290Z,3.46
2023-01-17T08:10:18.225Z,3.50
2023-01-17T08:12:52.963Z,3.50
2023-01-17T08:15:27.157Z,3.50
2023-01-17T08:18:01.922Z,3.60
2023-01-17T08:20:36.063Z,3.70
2023-01-17T08:23:10.105Z,3.70
2023-01-17T08:25:45.364Z,3.80
2023-01-17T08:28:20.666Z,3.80
2023-01-17T08:30:55.231Z,3.90
2023-01-17T08:33:29.344Z,3.96
2023-01-17T08:36:03.983Z,4.00
2023-01-17T08:38:38.556Z,4.00
2023-01-17T08:41:13.057Z,4.10
2023-01-17T08:43:47.762Z,4.14
2023-01-17T08:46:23.086Z,4.30
2023-01-17T08:49:01.462Z,4.38
2023-01-17T08:51:35.507Z,4.40
2023-01-17T08:54:12.978Z,4.50
2023-01-17T08:56:47.896Z,4.60
2023-01-17T08:59:21.912Z,4.70
2023-01-17T09:01:58.292Z,4.80
2023-01-17T09:04:32.558Z,4.90
2023-01-17T09:07:09.081Z,5.00
2023-01-17T09:09:43.447Z,5.10
2023-01-17T09:12:17.448Z,5.20
2023-01-17T09:14:51.961Z,5.30
2023-01-17T09:17:26.230Z,5.40
2023-01-17T09:20:00.275Z,5.50
2023-01-17T09:22:36.032Z,5.60
2023-01-17T09:25:11.658Z,5.70
2023-01-17T09:27:49.315Z,5.80
2023-01-17T09:30:24.341Z,5.90
2023-01-17T09:32:58.700Z,6.00
2023-01-17T09:35:32.532Z,6.20
2023-01-17T09:38:09.602Z,6.40
2023-01-17T09:40:50.392Z,6.60
2023-01-17T09:43:45.902Z,6.70
2023-01-17T09:46:26.957Z,6.80
2023-01-17T09:49:13.059Z,6.90
2023-01-17T09:51:47.198Z,7.00
2023-01-17T09:54:28.750Z,7.10
2023-01-17T09:57:13.171Z,7.30
2023-01-17T10:00:03.660Z,7.44
2023-01-17T10:09:24.224Z,8.14
2023-01-17T10:12:29.901Z,8.46
2023-01-17T10:15:37.853Z,8.96
2023-01-17T10:18:36.179Z,9.40
2023-01-17T10:21:21.732Z,9.60
2023-01-17T10:24:28.378Z,9.70
2023-01-17T10:27:17.302Z,9.60
2023-01-17T10:29:54.340Z,9.40
2023-01-17T10:32:34.376Z,9.20
2023-01-17T10:35:23.040Z,9.30
2023-01-17T10:37:59.767Z,9.60
2023-01-17T10:40:44.455Z,9.80
2023-01-17T10:43:28.988Z,10.00
2023-01-17T10:46:06.044Z,10.20
2023-01-17T10:48:47.603Z,10.20
2023-01-17T10:51:44.277Z,10.22
2023-01-17T10:54:41.914Z,10.32
2023-01-17T10:57:23.705Z,10.40
2023-01-17T11:00:02.796Z,10.40
2023-01-17T11:02:43.523Z,10.40
2023-01-17T11:05:28.876Z,10.40
2023-01-17T11:08:06.073Z,10.50
2023-01-17T11:10:47.119Z,10.70
2023-01-17T11:13:35.806Z,10.90
2023-01-17T11:16:19.535Z,10.72
2023-01-17T11:19:16.498Z,10.46
2023-01-17T11:22:03.151Z,10.40
2023-01-17T11:24:41.644Z,10.50
2023-01-17T11:27:30.841Z,10.70
2023-01-17T11:30:18.804Z,10.70
2023-01-17T11:33:06.768Z,10.80
2023-01-17T11:35:47.705Z,10.90
2023-01-17T11:38:25.945Z,10.92
2023-01-17T11:41:21.036Z,11.00
2023-01-17T11:43:58.292Z,10.92
2023-01-17T11:46:33.329Z,11.00
2023-01-17T11:49:07.651Z,11.10
2023-01-17T11:51:44.858Z,11.10
2023-01-17T11:54:24.773Z,11.10
2023-01-17T11:57:05.039Z,11.20
2023-01-17T11:59:43.894Z,11.20
2023-01-17T12:03:22.034Z,11.30
2023-01-17T12:06:09.752Z,11.40
2023-01-17T12:09:04.560Z,11.40
2023-01-17T12:12:05.366Z,11.60
2023-01-17T12:14:57.351Z,11.60
2023-01-17T12:17:55.277Z,11.64
2023-01-17T12:20:41.515Z,11.70
2023-01-17T12:23:47.395Z,11.80
2023-01-17T12:26:38.868Z,11.90
2023-01-17T12:29:43.396Z,11.80
2023-01-17T12:32:48.489Z,11.60
2023-01-17T12:35:31.764Z,11.60
2023-01-17T12:38:27.280Z,11.60
2023-01-17T12:41:12.735Z,11.74
2023-01-17T12:43:48.042Z,11.70
2023-01-17T12:46:30.212Z,11.80
2023-01-17T12:49:25.282Z,11.80
2023-01-17T12:52:13.047Z,11.90
2023-01-17T12:54:54.676Z,11.86
2023-01-17T12:57:35.497Z,11.80
2023-01-17T13:00:19.937Z,11.80
2023-01-17T13:03:02.832Z,11.70
2023-01-17T13:05:43.011Z,11.10
2023-01-17T13:08:30.456Z,10.64
2023-01-17T13:11:13.085Z,10.20
2023-01-17T13:13:51.422Z,9.76
2023-01-17T13:16:34.348Z,9.44
2023-01-17T13:19:21.652Z,9.20
2023-01-17T13:21:57.887Z,9.00
2023-01-17T13:24:43.523Z,9.00
2023-01-17T13:28:14.829Z,8.98
2023-01-17T13:31:40.321Z,9.32
2023-01-17T13:34:44.355Z,9.20
2023-01-17T13:37:53.254Z,8.94
2023-01-17T13:40:37.152Z,8.80
2023-01-17T13:43:22.593Z,8.70
2023-01-17T13:46:00.448Z,8.70
2023-01-17T13:48:38.452Z,8.62
2023-01-17T13:51:14.589Z,8.90
2023-01-17T13:53:52.459Z,9.52
2023-01-17T13:56:36.229Z,10.14
2023-01-17T13:59:31.420Z,10.64
2023-01-17T14:02:27.480Z,10.98
2023-01-17T14:05:23.206Z,11.00
2023-01-17T14:08:03.554Z,11.16
2023-01-17T14:10:45.258Z,11.30
2023-01-17T14:13:38.632Z,11.30
2023-01-17T14:16:31.433Z,11.20
2023-01-17T14:19:06.259Z,11.26
2023-01-17T14:21:40.752Z,11.30
2023-01-17T14:24:21.448Z,11.22
2023-01-17T14:27:14.449Z,11.02
2023-01-17T14:30:00.845Z,11.00
2023-01-17T14:32:39.585Z,11.00
2023-01-17T14:35:28.439Z,10.90
2023-01-17T14:38:05.548Z,10.90
2023-01-17T14:40:43.377Z,10.80
2023-01-17T14:43:22.499Z,10.70
2023-01-17T14:46:05.291Z,10.60
2023-01-17T14:48:44.481Z,10.38
2023-01-17T14:51:23.194Z,10.18
2023-01-17T14:54:05.338Z,9.74
2023-01-17T14:56:40.904Z,9.40
2023-01-17T14:59:24.083Z,9.00
2023-01-17T15:02:08.206Z,8.60
2023-01-17T15:04:43.082Z,8.20
2023-01-17T15:07:20.888Z,7.88
2023-01-17T15:09:55.519Z,7.60
2023-01-17T15:12:29.968Z,7.38
2023-01-17T15:15:05.700Z,7.16
2023-01-17T15:17:39.843Z,7.00
2023-01-17T15:20:22.210Z,6.80
2023-01-17T15:22:56.125Z,6.64
2023-01-17T15:25:30.637Z,6.50
2023-01-17T15:28:06.865Z,6.40
2023-01-17T15:30:58.310Z,6.30
2023-01-17T15:33:35.938Z,6.20
2023-01-17T15:36:18.733Z,6.10
2023-01-17T15:39:00.282Z,6.00
2023-01-17T15:41:38.667Z,5.90
2023-01-17T15:44:31.141Z,5.80
2023-01-17T15:47:29.870Z,5.70
2023-01-17T15:50:27.964Z,5.60
2023-01-17T15:53:04.809Z,5.44
2023-01-17T15:55:41.039Z,5.30
2023-01-17T15:58:30.169Z,5.20
2023-01-17T16:01:04.345Z,5.00
2023-01-17T16:03:38.527Z,4.90
2023-01-17T16:06:46.007Z,4.86
2023-01-17T16:09:27.281Z,4.70
2023-01-17T16:12:02.031Z,4.54
2023-01-17T16:14:51.505Z,4.40
2023-01-17T16:17:31.855Z,4.30
2023-01-17T16:20:07.117Z,4.30
2023-01-17T16:22:40.921Z,4.30
2023-01-17T16:25:21.634Z,4.20
2023-01-17T16:27:56.151Z,4.20
2023-01-17T16:30:31.421Z,4.20
2023-01-17T16:33:05.767Z,4.20
2023-01-17T16:35:40.343Z,4.16
2023-01-17T16:38:17.731Z,4.10
2023-01-17T16:40:52.381Z,4.10
2023-01-17T16:43:26.280Z,4.00
2023-01-17T16:46:00.358Z,3.90
2023-01-17T16:48:34.450Z,3.70
2023-01-17T16:51:09.984Z,3.58
2023-01-17T16:53:43.777Z,3.40
2023-01-17T16:56:21.237Z,3.30
2023-01-17T16:58:56.414Z,3.18
2023-01-17T17:01:30.718Z,3.00
2023-01-17T17:04:04.744Z,2.90
2023-01-17T17:06:38.684Z,2.80
2023-01-17T17:09:12.541Z,2.70
2023-01-17T17:11:47.435Z,2.60
2023-01-17T17:14:21.872Z,2.50
2023-01-17T17:16:56.027Z,2.40
2023-01-17T17:19:30.011Z,2.40
2023-01-17T17:22:06.759Z,2.40
2023-01-17T17:24:40.501Z,2.30
2023-01-17T17:27:14.281Z,2.20
2023-01-17T17:29:48.397Z,2.10
2023-01-17T17:32:22.846Z,2.00
2023-01-17T17:34:56.720Z,1.94
2023-01-17T17:37:30.661Z,1.86
2023-01-17T17:40:05.465Z,1.80
2023-01-17T17:42:39.287Z,1.70
2023-01-17T17:45:14.686Z,1.70
2023-01-17T17:47:48.722Z,1.70
2023-01-17T17:50:22.646Z,1.62
2023-01-17T17:52:56.818Z,1.56
2023-01-17T17:55:30.856Z,1.48
2023-01-17T17:58:04.630Z,1.40
2023-01-17T18:00:38.532Z,1.30
2023-01-17T18:03:12.361Z,1.26
2023-01-17T18:05:47.184Z,1.20
2023-01-17T18:08:22.832Z,1.16
2023-01-17T18:11:02.941Z,1.10
2023-01-17T18:13:37.186Z,1.10
2023-01-17T18:16:14.682Z,1.10
2023-01-17T18:18:51.453Z,1.00
2023-01-17T18:21:28.209Z,1.00
2023-01-17T18:24:05.263Z,0.90
2023-01-17T18:26:43.356Z,0.90
2023-01-17T18:29:19.696Z,0.80
2023-01-17T18:31:56.024Z,0.80
2023-01-17T18:34:31.231Z,0.70
2023-01-17T18:37:05.729Z,0.70
2023-01-17T18:39:39.860Z,0.80
2023-01-17T18:42:13.722Z,0.82
2023-01-17T18:44:48.020Z,0.82
2023-01-17T18:47:22.170Z,0.80
2023-01-17T18:49:56.317Z,0.80
2023-01-17T18:52:30.382Z,0.80
2023-01-17T18:55:04.365Z,0.80
2023-01-17T18:57:38.748Z,0.80
2023-01-17T19:00:16.863Z,0.80
2023-01-17T19:08:20.667Z,0.74
2023-01-17T19:10:55.509Z,0.80
2023-01-17T19:13:30.986Z,0.80
2023-01-17T19:16:08.046Z,0.80
2023-01-17T19:18:42.488Z,0.80
2023-01-17T19:21:19.968Z,0.80
2023-01-17T19:23:55.252Z,0.80
2023-01-17T19:26:30.208Z,0.80
2023-01-17T19:29:05.384Z,0.70
2023-01-17T19:31:43.316Z,0.70
2023-01-17T19:34:19.572Z,0.70
2023-01-17T19:36:55.144Z,0.70
2023-01-17T19:39:31.188Z,0.80
2023-01-17T19:42:05.060Z,0.88
2023-01-17T19:44:38.811Z,0.90
2023-01-17T19:47:13.550Z,0.80
2023-01-17T19:49:47.337Z,0.80
2023-01-17T19:52:22.478Z,0.76
2023-01-17T19:54:56.741Z,0.70
2023-01-17T19:57:35.014Z,0.70
2023-01-17T20:00:14.378Z,0.70
2023-01-17T20:02:49.724Z,0.70
2023-01-17T20:05:24.262Z,0.70
2023-01-17T20:07:58.975Z,0.70
2023-01-17T20:10:33.531Z,0.70
2023-01-17T20:13:08.137Z,0.66
2023-01-17T20:15:42.086Z,0.60
2023-01-17T20:18:16.032Z,0.60
2023-01-17T20:20:56.866Z,0.60
2023-01-17T20:23:34.338Z,0.50
2023-01-17T20:26:09.147Z,0.50
2023-01-17T20:28:46.790Z,0.42
2023-01-17T20:31:24.008Z,0.50
2023-01-17T20:33:58.971Z,0.48
2023-01-17T20:36:33.257Z,0.48
2023-01-17T20:39:11.145Z,0.50
2023-01-17T20:41:46.714Z,0.50
2023-01-17T20:44:21.109Z,0.50
2023-01-17T20:46:54.902Z,0.50
2023-01-17T20:49:29.015Z,0.50
2023-01-17T20:52:05.795Z,0.50
2023-01-17T20:54:39.991Z,0.50
2023-01-17T20:57:13.733Z,0.50
2023-01-17T20:59:48.584Z,0.50
2023-01-17T21:02:22.703Z,0.50
2023-01-17T21:04:56.715Z,0.50
2023-01-17T21:07:30.679Z,0.54
2023-01-17T21:10:05.178Z,0.58
2023-01-17T21:12:39.318Z,0.56
2023-01-17T21:15:17.678Z,0.52
2023-01-17T21:17:52.019Z,0.50
2023-01-17T21:20:27.478Z,0.50
2023-01-17T21:23:01.376Z,0.50
2023-01-17T21:25:35.093Z,0.60
2023-01-17T21:28:09.409Z,0.60
2023-01-17T21:30:43.464Z,0.70
2023-01-17T21:33:17.358Z,0.70
2023-01-17T21:35:54.127Z,0.70
2023-01-17T21:38:28.172Z,0.70
2023-01-17T21:41:02.399Z,0.72
2023-01-17T21:43:36.408Z,0.72
2023-01-17T21:46:10.886Z,0.80
2023-01-17T21:48:45.575Z,0.80
2023-01-17T21:51:21.867Z,0.82
2023-01-17T21:53:55.943Z,0.82
2023-01-17T21:56:47.469Z,0.80
2023-01-17T21:59:21.893Z,0.80
2023-01-17T22:01:55.960Z,0.80
2023-01-17T22:04:29.825Z,0.80
2023-01-17T22:07:03.478Z,0.80
2023-01-17T22:09:37.170Z,0.90
2023-01-17T22:12:11.831Z,0.90
2023-01-17T22:14:45.722Z,0.90
2023-01-17T22:17:21.077Z,0.88
2023-01-17T22:19:55.066Z,0.80
2023-01-17T22:22:32.312Z,0.80
2023-01-17T22:25:06.640Z,0.80
2023-01-17T22:27:40.435Z,0.76
2023-01-17T22:30:16.918Z,0.72
2023-01-17T22:32:50.878Z,0.80
2023-01-17T22:35:24.884Z,0.80
2023-01-17T22:37:58.795Z,0.80
2023-01-17T22:40:36.428Z,0.80
2023-01-17T22:43:10.288Z,0.72
2023-01-17T22:45:45.980Z,0.70
2023-01-17T22:48:20.194Z,0.70
2023-01-17T22:50:57.826Z,0.70
2023-01-17T22:53:32.546Z,0.70
2023-01-17T22:56:10.737Z,0.70
2023-01-17T22:58:45.848Z,0.78
2023-01-17T23:01:22.621Z,0.80
2023-01-17T23:03:58.901Z,0.90
2023-01-17T23:06:35.267Z,0.90
2023-01-17T23:09:12.102Z,0.96
2023-01-17T23:11:49.973Z,1.00
2023-01-17T23:14:26.965Z,1.00
2023-01-17T23:17:20.877Z,1.10
2023-01-17T23:19:56.117Z,1.20
2023-01-17T23:22:32.599Z,1.20
2023-01-17T23:25:11.004Z,1.30
2023-01-17T23:28:04.591Z,1.30
2023-01-17T23:30:41.665Z,1.30
2023-01-17T23:33:17.987Z,1.40
2023-01-17T23:35:51.733Z,1.40
2023-01-17T23:38:29.480Z,1.50
2023-01-17T23:41:27.404Z,1.60
2023-01-17T23:44:02.009Z,1.70
2023-01-17T23:46:35.976Z,1.80
2023-01-17T23:49:10.110Z,1.82
2023-01-17T23:51:43.771Z,1.90
2023-01-17T23:54:17.666Z,1.90
2023-01-17T23:56:51.534Z,1.96
2023-01-17T23:59:25.731Z,2.00
